sensor_id;sensor_type;location;lat;lon;timestamp;pressure;altitude;pressure_sealevel;temperature
69186;BMP280;56298;49.246;9.410;2022-09-09T00:02:20;99063.13;;;15.17
69186;BMP280;56298;49.246;9.410;2022-09-09T00:04:58;99058.03;;;15.12
69186;BMP280;56298;49.246;9.410;2022-09-09T00:12:42;99056.84;;;15.20
69186;BMP280;56298;49.246;9.410;2022-09-09T00:15:19;99056.84;;;15.20
69186;BMP280;56298;49.246;9.410;2022-09-09T00:18:14;99062.75;;;15.30
69186;BMP280;56298;49.246;9.410;2022-09-09T00:20:47;99057.63;;;15.32
69186;BMP280;56298;49.246;9.410;2022-09-09T00:23:27;99058.03;;;15.19
69186;BMP280;56298;49.246;9.410;2022-09-09T00:26:04;99053.28;;;15.31
69186;BMP280;56298;49.246;9.410;2022-09-09T00:28:30;99055.63;;;15.39
69186;BMP280;56298;49.246;9.410;2022-09-09T00:31:12;99053.28;;;15.38
69186;BMP280;56298;49.246;9.410;2022-09-09T00:33:37;99052.09;;;15.35
69186;BMP280;56298;49.246;9.410;2022-09-09T00:36:12;99043.41;;;15.30
69186;BMP280;56298;49.246;9.410;2022-09-09T00:38:42;99034.75;;;15.20
69186;BMP280;56298;49.246;9.410;2022-09-09T00:44:20;99035.53;;;15.24
69186;BMP280;56298;49.246;9.410;2022-09-09T00:47:03;99035.53;;;15.24
69186;BMP280;56298;49.246;9.410;2022-09-09T00:49:33;99038.69;;;15.27
69186;BMP280;56298;49.246;9.410;2022-09-09T00:53:03;99051.31;;;15.31
69186;BMP280;56298;49.246;9.410;2022-09-09T00:55:19;99056.84;;;15.38
69186;BMP280;56298;49.246;9.410;2022-09-09T00:57:50;99064.31;;;15.42
69186;BMP280;56298;49.246;9.410;2022-09-09T01:00:29;99065.50;;;15.44
69186;BMP280;56298;49.246;9.410;2022-09-09T01:05:54;99061.56;;;15.42
69186;BMP280;56298;49.246;9.410;2022-09-09T01:11:52;99066.69;;;15.36
69186;BMP280;56298;49.246;9.410;2022-09-09T01:14:35;99065.09;;;15.42
69186;BMP280;56298;49.246;9.410;2022-09-09T01:17:14;99062.75;;;15.44
69186;BMP280;56298;49.246;9.410;2022-09-09T01:22:34;99075.38;;;15.42
69186;BMP280;56298;49.246;9.410;2022-09-09T01:27:42;99076.94;;;15.39
69186;BMP280;56298;49.246;9.410;2022-09-09T01:30:11;99068.28;;;15.44
69186;BMP280;56298;49.246;9.410;2022-09-09T01:32:47;99065.09;;;15.49
69186;BMP280;56298;49.246;9.410;2022-09-09T01:38:11;99054.06;;;15.49
69186;BMP280;56298;49.246;9.410;2022-09-09T01:40:37;99056.44;;;15.47
69186;BMP280;56298;49.246;9.410;2022-09-09T01:43:03;99052.06;;;15.53
69186;BMP280;56298;49.246;9.410;2022-09-09T01:45:30;99048.53;;;15.49
69186;BMP280;56298;49.246;9.410;2022-09-09T01:47:55;99056.03;;;15.42
69186;BMP280;56298;49.246;9.410;2022-09-09T01:50:21;99060.00;;;15.44
69186;BMP280;56298;49.246;9.410;2022-09-09T01:52:50;99046.16;;;15.41
69186;BMP280;56298;49.246;9.410;2022-09-09T01:55:23;99058.41;;;15.43
69186;BMP280;56298;49.246;9.410;2022-09-09T02:00:44;99048.91;;;15.48
69186;BMP280;56298;49.246;9.410;2022-09-09T02:03:27;99057.19;;;15.59
69186;BMP280;56298;49.246;9.410;2022-09-09T02:06:05;99058.41;;;15.54
69186;BMP280;56298;49.246;9.410;2022-09-09T02:08:41;99057.56;;;15.64
69186;BMP280;56298;49.246;9.410;2022-09-09T02:11:18;99059.53;;;15.64
69186;BMP280;56298;49.246;9.410;2022-09-09T02:13:46;99072.59;;;15.60
69186;BMP280;56298;49.246;9.410;2022-09-09T02:21:06;99058.81;;;15.42
69186;BMP280;56298;49.246;9.410;2022-09-09T02:23:33;99055.63;;;15.36
69186;BMP280;56298;49.246;9.410;2022-09-09T02:26:00;99056.81;;;15.35
69186;BMP280;56298;49.246;9.410;2022-09-09T02:28:28;99058.00;;;15.30
69186;BMP280;56298;49.246;9.410;2022-09-09T02:30:54;99057.22;;;15.30
69186;BMP280;56298;49.246;9.410;2022-09-09T02:33:27;99058.03;;;15.27
69186;BMP280;56298;49.246;9.410;2022-09-09T02:35:55;99060.78;;;15.27
69186;BMP280;56298;49.246;9.410;2022-09-09T02:38:29;99054.50;;;15.26
69186;BMP280;56298;49.246;9.410;2022-09-09T02:40:56;99056.44;;;15.29
69186;BMP280;56298;49.246;9.410;2022-09-09T02:43:23;99040.28;;;15.31
69186;BMP280;56298;49.246;9.410;2022-09-09T02:53:57;99015.78;;;15.11
69186;BMP280;56298;49.246;9.410;2022-09-09T02:56:27;99027.25;;;14.95
69186;BMP280;56298;49.246;9.410;2022-09-09T02:58:55;99036.72;;;15.02
69186;BMP280;56298;49.246;9.410;2022-09-09T03:01:20;99039.47;;;14.94
69186;BMP280;56298;49.246;9.410;2022-09-09T03:03:46;99053.28;;;14.94
69186;BMP280;56298;49.246;9.410;2022-09-09T03:06:12;99047.34;;;14.92
69186;BMP280;56298;49.246;9.410;2022-09-09T03:08:37;99050.50;;;14.94
69186;BMP280;56298;49.246;9.410;2022-09-09T03:11:03;99035.09;;;14.79
69186;BMP280;56298;49.246;9.410;2022-09-09T03:13:28;99039.44;;;14.65
69186;BMP280;56298;49.246;9.410;2022-09-09T03:15:54;99048.53;;;14.66
69186;BMP280;56298;49.246;9.410;2022-09-09T03:18:19;99047.31;;;14.67
69186;BMP280;56298;49.246;9.410;2022-09-09T03:20:46;99037.06;;;14.64
69186;BMP280;56298;49.246;9.410;2022-09-09T03:23:13;99027.22;;;14.63
69186;BMP280;56298;49.246;9.410;2022-09-09T03:25:38;99043.34;;;14.57
69186;BMP280;56298;49.246;9.410;2022-09-09T03:28:04;99040.59;;;14.57
69186;BMP280;56298;49.246;9.410;2022-09-09T03:30:30;99030.75;;;14.56
69186;BMP280;56298;49.246;9.410;2022-09-09T03:32:55;99031.53;;;14.46
69186;BMP280;56298;49.246;9.410;2022-09-09T03:35:21;99028.75;;;14.46
69186;BMP280;56298;49.246;9.410;2022-09-09T03:37:47;99031.50;;;14.42
69186;BMP280;56298;49.246;9.410;2022-09-09T03:40:12;99030.31;;;14.43
69186;BMP280;56298;49.246;9.410;2022-09-09T03:42:38;99035.47;;;14.45
69186;BMP280;56298;49.246;9.410;2022-09-09T03:45:08;99040.94;;;14.37
69186;BMP280;56298;49.246;9.410;2022-09-09T03:47:34;99037.81;;;14.35
69186;BMP280;56298;49.246;9.410;2022-09-09T03:49:59;99033.88;;;14.40
69186;BMP280;56298;49.246;9.410;2022-09-09T03:52:25;99033.06;;;14.43
69186;BMP280;56298;49.246;9.410;2022-09-09T03:54:51;99030.34;;;14.39
69186;BMP280;56298;49.246;9.410;2022-09-09T03:57:17;99030.69;;;14.27
69186;BMP280;56298;49.246;9.410;2022-09-09T03:59:43;99031.44;;;14.24
69186;BMP280;56298;49.246;9.410;2022-09-09T04:02:08;99025.13;;;14.20
69186;BMP280;56298;49.246;9.410;2022-09-09T04:04:33;99024.75;;;14.25
69186;BMP280;56298;49.246;9.410;2022-09-09T04:06:59;99024.78;;;14.32
69186;BMP280;56298;49.246;9.410;2022-09-09T04:09:24;99022.03;;;14.29
69186;BMP280;56298;49.246;9.410;2022-09-09T04:11:49;99029.91;;;14.34
69186;BMP280;56298;49.246;9.410;2022-09-09T04:14:15;99033.09;;;14.39
69186;BMP280;56298;49.246;9.410;2022-09-09T04:16:40;99030.72;;;14.49
69186;BMP280;56298;49.246;9.410;2022-09-09T04:19:09;99024.44;;;14.56
69186;BMP280;56298;49.246;9.410;2022-09-09T04:21:37;99035.50;;;14.59
69186;BMP280;56298;49.246;9.410;2022-09-09T04:24:05;99038.66;;;14.65
69186;BMP280;56298;49.246;9.410;2022-09-09T04:26:30;99055.59;;;14.63
69186;BMP280;56298;49.246;9.410;2022-09-09T04:28:55;99055.19;;;14.61
69186;BMP280;56298;49.246;9.410;2022-09-09T04:31:22;99063.47;;;14.61
69186;BMP280;56298;49.246;9.410;2022-09-09T04:33:49;99056.81;;;14.66
69186;BMP280;56298;49.246;9.410;2022-09-09T04:36:15;99062.31;;;14.66
69186;BMP280;56298;49.246;9.410;2022-09-09T04:38:40;99059.94;;;14.68
69186;BMP280;56298;49.246;9.410;2022-09-09T04:41:06;99065.06;;;14.59
69186;BMP280;56298;49.246;9.410;2022-09-09T04:43:31;99052.03;;;14.56
69186;BMP280;56298;49.246;9.410;2022-09-09T04:45:57;99055.94;;;14.54
69186;BMP280;56298;49.246;9.410;2022-09-09T04:48:22;99058.75;;;14.65
69186;BMP280;56298;49.246;9.410;2022-09-09T04:53:25;99059.16;;;14.67
69186;BMP280;56298;49.246;9.410;2022-09-09T04:55:52;99056.44;;;14.82
69186;BMP280;56298;49.246;9.410;2022-09-09T04:58:17;99061.53;;;14.84
69186;BMP280;56298;49.246;9.410;2022-09-09T05:00:43;99069.06;;;14.83
69186;BMP280;56298;49.246;9.410;2022-09-09T05:03:08;99070.63;;;14.84
69186;BMP280;56298;49.246;9.410;2022-09-09T05:05:34;99068.25;;;14.82
69186;BMP280;56298;49.246;9.410;2022-09-09T05:08:07;99070.63;;;14.84
69186;BMP280;56298;49.246;9.410;2022-09-09T05:10:35;99075.75;;;14.82
69186;BMP280;56298;49.246;9.410;2022-09-09T05:13:01;99081.28;;;14.89
69186;BMP280;56298;49.246;9.410;2022-09-09T05:15:26;99086.03;;;14.96
69186;BMP280;56298;49.246;9.410;2022-09-09T05:17:52;99081.69;;;15.06
69186;BMP280;56298;49.246;9.410;2022-09-09T05:20:19;99089.97;;;15.24
69186;BMP280;56298;49.246;9.410;2022-09-09T05:22:45;99087.19;;;15.28
69186;BMP280;56298;49.246;9.410;2022-09-09T05:25:10;99093.94;;;15.45
69186;BMP280;56298;49.246;9.410;2022-09-09T05:27:35;99094.72;;;15.52
69186;BMP280;56298;49.246;9.410;2022-09-09T05:30:00;99094.69;;;15.49
69186;BMP280;56298;49.246;9.410;2022-09-09T05:32:26;99098.28;;;15.49
69186;BMP280;56298;49.246;9.410;2022-09-09T05:34:51;99092.72;;;15.42
69186;BMP280;56298;49.246;9.410;2022-09-09T05:37:17;99100.66;;;15.36
69186;BMP280;56298;49.246;9.410;2022-09-09T05:39:43;99096.28;;;15.39
69186;BMP280;56298;49.246;9.410;2022-09-09T05:42:08;99095.91;;;15.44
69186;BMP280;56298;49.246;9.410;2022-09-09T05:44:33;99102.22;;;15.34
69186;BMP280;56298;49.246;9.410;2022-09-09T05:46:59;99103.38;;;15.29
69186;BMP280;56298;49.246;9.410;2022-09-09T05:49:25;99109.31;;;15.24
69186;BMP280;56298;49.246;9.410;2022-09-09T05:51:50;99109.72;;;15.30
69186;BMP280;56298;49.246;9.410;2022-09-09T05:56:48;99116.81;;;15.49
69186;BMP280;56298;49.246;9.410;2022-09-09T05:59:15;99121.94;;;15.72
69186;BMP280;56298;49.246;9.410;2022-09-09T06:01:44;99120.38;;;15.71
69186;BMP280;56298;49.246;9.410;2022-09-09T06:04:10;99117.91;;;15.91
69186;BMP280;56298;49.246;9.410;2022-09-09T06:06:38;99118.59;;;16.32
69186;BMP280;56298;49.246;9.410;2022-09-09T06:09:06;99116.50;;;16.58
69186;BMP280;56298;49.246;9.410;2022-09-09T06:11:35;99115.31;;;16.59
69186;BMP280;56298;49.246;9.410;2022-09-09T06:14:01;99112.09;;;16.67
69186;BMP280;56298;49.246;9.410;2022-09-09T06:16:27;99111.63;;;16.80
69186;BMP280;56298;49.246;9.410;2022-09-09T06:18:54;99105.13;;;17.01
69186;BMP280;56298;49.246;9.410;2022-09-09T06:21:23;99108.44;;;17.34
69186;BMP280;56298;49.246;9.410;2022-09-09T06:23:48;99104.06;;;17.75
69186;BMP280;56298;49.246;9.410;2022-09-09T06:26:16;99108.53;;;18.00
69186;BMP280;56298;49.246;9.410;2022-09-09T06:28:48;99111.81;;;17.91
69186;BMP280;56298;49.246;9.410;2022-09-09T06:31:16;99105.44;;;17.94
69186;BMP280;56298;49.246;9.410;2022-09-09T06:33:43;99112.91;;;18.01
69186;BMP280;56298;49.246;9.410;2022-09-09T06:36:39;99104.66;;;17.94
69186;BMP280;56298;49.246;9.410;2022-09-09T06:39:05;99104.19;;;17.99
69186;BMP280;56298;49.246;9.410;2022-09-09T06:41:32;99107.66;;;18.10
69186;BMP280;56298;49.246;9.410;2022-09-09T06:43:58;99107.47;;;18.25
69186;BMP280;56298;49.246;9.410;2022-09-09T06:46:26;99106.53;;;18.35
69186;BMP280;56298;49.246;9.410;2022-09-09T06:48:56;99106.72;;;18.48
69186;BMP280;56298;49.246;9.410;2022-09-09T06:51:27;99114.94;;;18.59
69186;BMP280;56298;49.246;9.410;2022-09-09T06:53:55;99111.69;;;18.64
69186;BMP280;56298;49.246;9.410;2022-09-09T06:56:34;99112.19;;;18.83
69186;BMP280;56298;49.246;9.410;2022-09-09T06:59:01;99113.97;;;18.97
69186;BMP280;56298;49.246;9.410;2022-09-09T07:01:31;99110.16;;;19.11
69186;BMP280;56298;49.246;9.410;2022-09-09T07:03:57;99109.19;;;19.21
69186;BMP280;56298;49.246;9.410;2022-09-09T07:06:44;99122.44;;;19.57
69186;BMP280;56298;49.246;9.410;2022-09-09T07:09:11;99124.44;;;20.38
69186;BMP280;56298;49.246;9.410;2022-09-09T07:11:40;99118.63;;;21.44
69186;BMP280;56298;49.246;9.410;2022-09-09T07:14:07;99118.63;;;21.74
69186;BMP280;56298;49.246;9.410;2022-09-09T07:16:33;99116.78;;;21.54
69186;BMP280;56298;49.246;9.410;2022-09-09T07:18:58;99115.78;;;21.31
69186;BMP280;56298;49.246;9.410;2022-09-09T07:21:26;99118.00;;;21.07
69186;BMP280;56298;49.246;9.410;2022-09-09T07:23:52;99118.94;;;21.17
69186;BMP280;56298;49.246;9.410;2022-09-09T07:26:20;99122.88;;;21.19
69186;BMP280;56298;49.246;9.410;2022-09-09T07:28:46;99120.56;;;21.31
69186;BMP280;56298;49.246;9.410;2022-09-09T07:31:19;99116.00;;;21.53
69186;BMP280;56298;49.246;9.410;2022-09-09T07:33:46;99111.66;;;21.95
69186;BMP280;56298;49.246;9.410;2022-09-09T07:36:25;99110.56;;;22.31
69186;BMP280;56298;49.246;9.410;2022-09-09T07:38:59;99114.22;;;22.28
69186;BMP280;56298;49.246;9.410;2022-09-09T07:41:27;99117.03;;;22.15
69186;BMP280;56298;49.246;9.410;2022-09-09T07:43:53;99125.06;;;22.13
69186;BMP280;56298;49.246;9.410;2022-09-09T07:46:21;99119.25;;;21.94
69186;BMP280;56298;49.246;9.410;2022-09-09T07:48:48;99125.22;;;21.80
69186;BMP280;56298;49.246;9.410;2022-09-09T07:51:20;99120.69;;;21.99
69186;BMP280;56298;49.246;9.410;2022-09-09T07:53:47;99122.06;;;21.94
69186;BMP280;56298;49.246;9.410;2022-09-09T07:56:16;99123.25;;;21.93
69186;BMP280;56298;49.246;9.410;2022-09-09T07:58:47;99124.91;;;21.78
69186;BMP280;56298;49.246;9.410;2022-09-09T08:01:23;99137.72;;;21.75
69186;BMP280;56298;49.246;9.410;2022-09-09T08:04:00;99137.94;;;21.38
69186;BMP280;56298;49.246;9.410;2022-09-09T08:06:28;99139.28;;;21.76
69186;BMP280;56298;49.246;9.410;2022-09-09T08:08:53;99131.19;;;22.08
69186;BMP280;56298;49.246;9.410;2022-09-09T08:11:20;99138.03;;;22.07
69186;BMP280;56298;49.246;9.410;2022-09-09T08:13:46;99135.47;;;22.25
69186;BMP280;56298;49.246;9.410;2022-09-09T08:16:18;99123.97;;;22.36
69186;BMP280;56298;49.246;9.410;2022-09-09T08:18:44;99135.59;;;22.35
69186;BMP280;56298;49.246;9.410;2022-09-09T08:21:15;99143.09;;;22.38
69186;BMP280;56298;49.246;9.410;2022-09-09T08:23:43;99159.59;;;22.45
69186;BMP280;56298;49.246;9.410;2022-09-09T08:26:12;99157.13;;;22.73
69186;BMP280;56298;49.246;9.410;2022-09-09T08:28:45;99163.72;;;23.62
69186;BMP280;56298;49.246;9.410;2022-09-09T08:31:13;99151.59;;;24.60
69186;BMP280;56298;49.246;9.410;2022-09-09T08:33:39;99151.66;;;25.16
69186;BMP280;56298;49.246;9.410;2022-09-09T08:36:08;99155.91;;;25.30
69186;BMP280;56298;49.246;9.410;2022-09-09T08:38:34;99150.72;;;24.91
69186;BMP280;56298;49.246;9.410;2022-09-09T08:44:07;99134.00;;;24.69
69186;BMP280;56298;49.246;9.410;2022-09-09T08:46:58;99133.81;;;24.54
69186;BMP280;56298;49.246;9.410;2022-09-09T08:55:59;99131.59;;;25.88
69186;BMP280;56298;49.246;9.410;2022-09-09T08:58:33;99116.22;;;26.08
69186;BMP280;56298;49.246;9.410;2022-09-09T09:06:44;99129.81;;;26.09
69186;BMP280;56298;49.246;9.410;2022-09-09T09:11:55;99134.09;;;25.77
69186;BMP280;56298;49.246;9.410;2022-09-09T09:14:26;99133.53;;;25.63
69186;BMP280;56298;49.246;9.410;2022-09-09T09:16:56;99125.19;;;25.88
69186;BMP280;56298;49.246;9.410;2022-09-09T09:19:23;99111.06;;;26.06
69186;BMP280;56298;49.246;9.410;2022-09-09T09:21:56;99122.47;;;25.51
69186;BMP280;56298;49.246;9.410;2022-09-09T09:24:28;99118.63;;;25.11
69186;BMP280;56298;49.246;9.410;2022-09-09T09:26:59;99131.81;;;24.64
69186;BMP280;56298;49.246;9.410;2022-09-09T09:29:29;99121.28;;;24.36
69186;BMP280;56298;49.246;9.410;2022-09-09T09:31:56;99130.53;;;24.55
69186;BMP280;56298;49.246;9.410;2022-09-09T09:34:24;99122.78;;;24.60
69186;BMP280;56298;49.246;9.410;2022-09-09T09:36:56;99118.53;;;24.46
69186;BMP280;56298;49.246;9.410;2022-09-09T09:39:29;99107.59;;;23.98
69186;BMP280;56298;49.246;9.410;2022-09-09T09:41:55;99111.28;;;23.63
69186;BMP280;56298;49.246;9.410;2022-09-09T09:44:32;99118.88;;;23.85
69186;BMP280;56298;49.246;9.410;2022-09-09T09:49:33;99099.81;;;24.42
69186;BMP280;56298;49.246;9.410;2022-09-09T09:52:03;99100.78;;;24.58
69186;BMP280;56298;49.246;9.410;2022-09-09T09:54:31;99107.53;;;24.98
69186;BMP280;56298;49.246;9.410;2022-09-09T09:57:08;99106.75;;;25.07
69186;BMP280;56298;49.246;9.410;2022-09-09T09:59:35;99103.78;;;24.92
69186;BMP280;56298;49.246;9.410;2022-09-09T10:02:14;99103.75;;;24.73
69186;BMP280;56298;49.246;9.410;2022-09-09T10:04:40;99104.66;;;24.42
69186;BMP280;56298;49.246;9.410;2022-09-09T10:07:17;99121.31;;;23.07
69186;BMP280;56298;49.246;9.410;2022-09-09T10:09:43;99141.47;;;21.55
69186;BMP280;56298;49.246;9.410;2022-09-09T10:15:19;99141.31;;;19.90
69186;BMP280;56298;49.246;9.410;2022-09-09T10:29:32;99142.13;;;20.27
69186;BMP280;56298;49.246;9.410;2022-09-09T10:34:55;99141.78;;;20.25
69186;BMP280;56298;49.246;9.410;2022-09-09T10:37:36;99146.53;;;20.28
69186;BMP280;56298;49.246;9.410;2022-09-09T10:42:44;99151.69;;;20.10
69186;BMP280;56298;49.246;9.410;2022-09-09T10:45:29;99153.38;;;20.24
69186;BMP280;56298;49.246;9.410;2022-09-09T10:48:13;99157.03;;;20.74
69186;BMP280;56298;49.246;9.410;2022-09-09T10:50:53;99149.38;;;21.28
69186;BMP280;56298;49.246;9.410;2022-09-09T10:54:06;99147.97;;;21.65
69186;BMP280;56298;49.246;9.410;2022-09-09T10:56:28;99139.78;;;21.88
69186;BMP280;56298;49.246;9.410;2022-09-09T10:59:02;99138.91;;;21.61
69186;BMP280;56298;49.246;9.410;2022-09-09T11:01:39;99143.13;;;21.53
69186;BMP280;56298;49.246;9.410;2022-09-09T11:04:17;99131.28;;;21.49
69186;BMP280;56298;49.246;9.410;2022-09-09T11:06:48;99146.00;;;21.49
69186;BMP280;56298;49.246;9.410;2022-09-09T11:09:19;99129.88;;;21.57
69186;BMP280;56298;49.246;9.410;2022-09-09T11:11:52;99132.81;;;21.79
69186;BMP280;56298;49.246;9.410;2022-09-09T11:14:28;99118.31;;;21.84
69186;BMP280;56298;49.246;9.410;2022-09-09T11:17:01;99119.44;;;22.00
69186;BMP280;56298;49.246;9.410;2022-09-09T11:19:45;99119.59;;;22.61
69186;BMP280;56298;49.246;9.410;2022-09-09T11:22:33;99106.31;;;23.00
69186;BMP280;56298;49.246;9.410;2022-09-09T11:25:26;99098.66;;;23.14
69186;BMP280;56298;49.246;9.410;2022-09-09T11:38:44;99091.31;;;24.05
69186;BMP280;56298;49.246;9.410;2022-09-09T11:41:11;99094.81;;;24.28
69186;BMP280;56298;49.246;9.410;2022-09-09T11:43:45;99087.03;;;23.91
69186;BMP280;56298;49.246;9.410;2022-09-09T11:46:12;99085.84;;;23.70
69186;BMP280;56298;49.246;9.410;2022-09-09T11:48:43;99086.53;;;23.52
69186;BMP280;56298;49.246;9.410;2022-09-09T11:53:55;99088.00;;;23.98
69186;BMP280;56298;49.246;9.410;2022-09-09T11:56:30;99091.94;;;24.50
69186;BMP280;56298;49.246;9.410;2022-09-09T11:59:00;99087.13;;;24.97
69186;BMP280;56298;49.246;9.410;2022-09-09T12:01:33;99084.63;;;25.18
69186;BMP280;56298;49.246;9.410;2022-09-09T12:06:48;99078.69;;;24.88
69186;BMP280;56298;49.246;9.410;2022-09-09T12:09:27;99069.50;;;24.50
69186;BMP280;56298;49.246;9.410;2022-09-09T12:14:44;99080.41;;;24.07
69186;BMP280;56298;49.246;9.410;2022-09-09T12:19:46;99092.28;;;23.35
69186;BMP280;56298;49.246;9.410;2022-09-09T12:22:26;99093.63;;;24.07
69186;BMP280;56298;49.246;9.410;2022-09-09T12:30:21;99084.13;;;25.20
69186;BMP280;56298;49.246;9.410;2022-09-09T12:33:01;99077.41;;;24.52
69186;BMP280;56298;49.246;9.410;2022-09-09T12:35:28;99080.34;;;24.39
69186;BMP280;56298;49.246;9.410;2022-09-09T12:37:58;99090.09;;;24.16
69186;BMP280;56298;49.246;9.410;2022-09-09T12:40:33;99081.47;;;23.69
69186;BMP280;56298;49.246;9.410;2022-09-09T12:43:01;99076.69;;;23.25
69186;BMP280;56298;49.246;9.410;2022-09-09T12:45:28;99073.75;;;23.07
69186;BMP280;56298;49.246;9.410;2022-09-09T12:48:08;99070.94;;;23.07
69186;BMP280;56298;49.246;9.410;2022-09-09T12:50:38;99070.09;;;23.19
69186;BMP280;56298;49.246;9.410;2022-09-09T12:53:22;99068.25;;;23.70
69186;BMP280;56298;49.246;9.410;2022-09-09T12:55:58;99061.03;;;23.91
69186;BMP280;56298;49.246;9.410;2022-09-09T12:58:25;99064.25;;;24.11
69186;BMP280;56298;49.246;9.410;2022-09-09T13:00:52;99063.31;;;24.15
69186;BMP280;56298;49.246;9.410;2022-09-09T13:03:20;99071.13;;;24.20
69186;BMP280;56298;49.246;9.410;2022-09-09T13:05:46;99075.28;;;24.06
69186;BMP280;56298;49.246;9.410;2022-09-09T13:08:13;99072.47;;;23.74
69186;BMP280;56298;49.246;9.410;2022-09-09T13:13:26;99077.06;;;24.31
69186;BMP280;56298;49.246;9.410;2022-09-09T13:15:54;99077.94;;;24.87
69186;BMP280;56298;49.246;9.410;2022-09-09T13:18:34;99076.47;;;25.39
69186;BMP280;56298;49.246;9.410;2022-09-09T13:21:00;99074.25;;;25.52
69186;BMP280;56298;49.246;9.410;2022-09-09T13:23:28;99069.94;;;25.42
69186;BMP280;56298;49.246;9.410;2022-09-09T13:26:21;99062.19;;;24.99
69186;BMP280;56298;49.246;9.410;2022-09-09T13:28:48;99060.94;;;24.82
69186;BMP280;56298;49.246;9.410;2022-09-09T13:31:30;99056.81;;;24.36
69186;BMP280;56298;49.246;9.410;2022-09-09T13:33:57;99063.44;;;24.11
69186;BMP280;56298;49.246;9.410;2022-09-09T13:36:34;99059.47;;;23.90
69186;BMP280;56298;49.246;9.410;2022-09-09T13:39:01;99055.72;;;23.84
69186;BMP280;56298;49.246;9.410;2022-09-09T13:41:35;99047.03;;;23.91
69186;BMP280;56298;49.246;9.410;2022-09-09T13:44:02;99051.75;;;24.03
69186;BMP280;56298;49.246;9.410;2022-09-09T13:46:37;99051.47;;;24.01
69186;BMP280;56298;49.246;9.410;2022-09-09T13:54:05;99047.13;;;23.78
69186;BMP280;56298;49.246;9.410;2022-09-09T13:56:32;99045.78;;;23.83
69186;BMP280;56298;49.246;9.410;2022-09-09T13:58:57;99037.44;;;24.01
69186;BMP280;56298;49.246;9.410;2022-09-09T14:01:23;99047.41;;;24.02
69186;BMP280;56298;49.246;9.410;2022-09-09T14:03:48;99047.56;;;23.76
69186;BMP280;56298;49.246;9.410;2022-09-09T14:06:13;99043.53;;;23.68
69186;BMP280;56298;49.246;9.410;2022-09-09T14:08:39;99036.56;;;23.82
69186;BMP280;56298;49.246;9.410;2022-09-09T14:11:05;99035.84;;;23.91
69186;BMP280;56298;49.246;9.410;2022-09-09T14:13:31;99036.22;;;23.71
69186;BMP280;56298;49.246;9.410;2022-09-09T14:15:56;99043.97;;;23.67
69186;BMP280;56298;49.246;9.410;2022-09-09T14:18:22;99040.22;;;23.60
69186;BMP280;56298;49.246;9.410;2022-09-09T14:20:48;99046.28;;;23.59
69186;BMP280;56298;49.246;9.410;2022-09-09T14:23:15;99045.81;;;23.60
69186;BMP280;56298;49.246;9.410;2022-09-09T14:25:42;99050.53;;;23.73
69186;BMP280;56298;49.246;9.410;2022-09-09T14:28:13;99056.28;;;23.69
69186;BMP280;56298;49.246;9.410;2022-09-09T14:30:40;99051.13;;;23.68
69186;BMP280;56298;49.246;9.410;2022-09-09T14:33:06;99063.13;;;23.46
69186;BMP280;56298;49.246;9.410;2022-09-09T14:35:32;99056.63;;;23.49
69186;BMP280;56298;49.246;9.410;2022-09-09T14:37:58;99065.88;;;23.37
69186;BMP280;56298;49.246;9.410;2022-09-09T14:40:26;99057.75;;;23.29
69186;BMP280;56298;49.246;9.410;2022-09-09T14:42:52;99062.56;;;23.29
69186;BMP280;56298;49.246;9.410;2022-09-09T14:45:17;99054.28;;;23.47
69186;BMP280;56298;49.246;9.410;2022-09-09T14:47:46;99061.84;;;23.60
69186;BMP280;56298;49.246;9.410;2022-09-09T14:50:18;99054.13;;;23.73
69186;BMP280;56298;49.246;9.410;2022-09-09T14:52:46;99061.78;;;23.82
69186;BMP280;56298;49.246;9.410;2022-09-09T14:55:12;99058.41;;;23.87
69186;BMP280;56298;49.246;9.410;2022-09-09T14:57:37;99062.53;;;23.73
69186;BMP280;56298;49.246;9.410;2022-09-09T15:00:04;99073.72;;;23.73
69186;BMP280;56298;49.246;9.410;2022-09-09T15:02:30;99059.09;;;23.47
69186;BMP280;56298;49.246;9.410;2022-09-09T15:04:56;99059.03;;;23.15
69186;BMP280;56298;49.246;9.410;2022-09-09T15:07:25;99051.78;;;22.83
69186;BMP280;56298;49.246;9.410;2022-09-09T15:09:50;99049.97;;;22.54
69186;BMP280;56298;49.246;9.410;2022-09-09T15:12:16;99044.75;;;22.30
69186;BMP280;56298;49.246;9.410;2022-09-09T15:14:44;99049.88;;;22.06
69186;BMP280;56298;49.246;9.410;2022-09-09T15:17:09;99048.53;;;21.97
69186;BMP280;56298;49.246;9.410;2022-09-09T15:19:34;99052.00;;;21.89
69186;BMP280;56298;49.246;9.410;2022-09-09T15:22:01;99053.31;;;21.84
69186;BMP280;56298;49.246;9.410;2022-09-09T15:24:26;99043.97;;;21.91
69186;BMP280;56298;49.246;9.410;2022-09-09T15:26:52;99046.41;;;21.89
69186;BMP280;56298;49.246;9.410;2022-09-09T15:29:18;99049.22;;;21.89
69186;BMP280;56298;49.246;9.410;2022-09-09T15:31:44;99056.16;;;21.97
69186;BMP280;56298;49.246;9.410;2022-09-09T15:34:09;99053.00;;;22.08
69186;BMP280;56298;49.246;9.410;2022-09-09T15:36:39;99050.88;;;22.12
69186;BMP280;56298;49.246;9.410;2022-09-09T15:39:10;99061.41;;;22.21
69186;BMP280;56298;49.246;9.410;2022-09-09T15:41:41;99060.81;;;22.39
69186;BMP280;56298;49.246;9.410;2022-09-09T15:44:08;99057.34;;;22.48
69186;BMP280;56298;49.246;9.410;2022-09-09T15:46:37;99055.41;;;22.57
69186;BMP280;56298;49.246;9.410;2022-09-09T15:49:06;99056.53;;;22.60
69186;BMP280;56298;49.246;9.410;2022-09-09T15:51:32;99051.53;;;22.55
69186;BMP280;56298;49.246;9.410;2022-09-09T15:53:58;99052.75;;;22.54
69186;BMP280;56298;49.246;9.410;2022-09-09T15:56:25;99048.47;;;22.62
69186;BMP280;56298;49.246;9.410;2022-09-09T15:58:52;99049.03;;;22.57
69186;BMP280;56298;49.246;9.410;2022-09-09T16:01:18;99051.09;;;22.30
69186;BMP280;56298;49.246;9.410;2022-09-09T16:03:44;99053.44;;;22.32
69186;BMP280;56298;49.246;9.410;2022-09-09T16:06:16;99058.94;;;22.10
69186;BMP280;56298;49.246;9.410;2022-09-09T16:08:44;99067.19;;;21.88
69186;BMP280;56298;49.246;9.410;2022-09-09T16:11:15;99064.16;;;21.69
69186;BMP280;56298;49.246;9.410;2022-09-09T16:13:44;99075.78;;;21.51
69186;BMP280;56298;49.246;9.410;2022-09-09T16:16:13;99086.03;;;21.41
69186;BMP280;56298;49.246;9.410;2022-09-09T16:18:44;99086.00;;;21.28
69186;BMP280;56298;49.246;9.410;2022-09-09T16:21:18;99107.53;;;21.28
69186;BMP280;56298;49.246;9.410;2022-09-09T16:23:44;99102.97;;;21.34